Latest Weather Observations for St Helens

IDT60801

Issued at 7:05 pm EST Monday 15 September 2014 (issued every 30 minutes, with the page automatically refreshed every 10 minutes)

About weather observations | Map of weather stations | Latest weather observations for TAS | Other Formats
Station Details ID: 092120 Name: ST HELENS AERODROME Lat: -41.34 Lon: 148.28 Height: 48.0 m
Data from the previous 72 hours. | See also: Recent months at St Helens
Date/Time
EST
Temp
°C
App
Temp
°C
Dew
Point
Rel
Hum
%
Delta-T
°C
Wind Press
QNH
hPa
Press
MSL
hPa
Rain
since 9 am
mm
Dir
 
Spd
km/h
Gust
km/h
Spd
kts
Gust
kts
15/07:00pm 9.8 8.0 3.3 64 2.8 E 2 7 1 4 1017.0 - 0.0
15/06:30pm 9.7 7.1 3.2 64 2.8 E 6 7 3 4 1016.9 - 0.0
15/06:00pm 9.6 6.9 2.9 63 2.9 E 6 9 3 5 1016.9 1017.0 0.0
15/05:30pm 10.0 7.7 2.6 60 3.2 E 4 11 2 6 1016.9 - 0.0
15/05:00pm 11.1 8.4 2.4 55 3.7 ESE 6 9 3 5 1016.8 - 0.0
15/04:30pm 11.8 8.8 2.3 52 4.1 ESE 7 15 4 8 1016.5 - 0.0
15/04:00pm 11.9 8.9 1.8 50 4.3 E 7 13 4 7 1016.4 - 0.0
15/03:30pm 11.9 8.5 1.8 50 4.3 ESE 9 19 5 10 1016.5 - 0.0
15/03:00pm 12.2 8.9 2.4 51 4.3 ESE 9 15 5 8 1016.5 1016.7 0.0
15/02:30pm 11.9 8.1 1.8 50 4.3 ESE 11 20 6 11 1016.8 - 0.0
15/02:00pm 12.7 8.9 2.0 48 4.6 ESE 11 24 6 13 1017.0 - 0.0
15/01:30pm 12.5 8.4 2.4 50 4.4 ESE 13 24 7 13 1017.0 - 0.0
15/01:00pm 13.1 9.4 2.6 49 4.6 SSE 11 22 6 12 1017.2 - 0.0
15/12:30pm 12.6 8.3 1.3 46 4.8 SSE 13 24 7 13 1017.3 - 0.0
15/12:00pm 12.1 7.7 0.2 44 4.9 ESE 13 24 7 13 1017.6 1017.7 0.0
15/11:30am 12.7 8.5 1.4 46 4.8 SE 13 24 7 13 1018.0 - 0.0
15/11:00am 12.2 8.3 1.2 47 4.7 SE 11 20 6 11 1018.3 - 0.0
15/10:30am 12.0 7.7 1.3 48 4.5 SSE 13 20 7 11 1018.5 - 0.0
15/10:00am 11.8 8.2 0.6 46 4.7 SSW 9 15 5 8 1018.8 - 0.0
15/09:30am 11.0 7.3 0.1 47 4.4 SSW 9 15 5 8 1019.0 - 0.0
15/09:00am 10.7 7.6 1.3 52 3.9 SSW 7 13 4 7 1019.0 1019.1 0.0
15/08:30am 8.8 6.5 2.6 65 2.6 WNW 4 9 2 5 1018.9 - 0.0
15/08:00am 6.8 3.4 1.9 71 2.0 N 9 13 5 7 1019.0 - 0.0
15/07:30am 4.9 1.1 1.7 80 1.3 NNW 11 17 6 9 1019.0 - 0.0
15/07:00am 3.4 -0.6 0.8 83 1.0 NW 11 15 6 8 1018.6 - 0.0
15/06:30am 2.8 -1.2 0.5 85 0.9 NW 11 15 6 8 1018.3 - 0.0
15/06:00am 3.1 -0.1 0.8 85 0.9 NW 7 11 4 6 1018.3 1018.4 0.0
15/05:30am 3.2 0.2 1.7 90 0.6 NW 7 9 4 5 1018.3 - 0.0
15/05:00am 3.1 0.5 0.7 84 0.9 WNW 4 11 2 6 1018.3 - 0.0
15/04:30am 3.6 0.1 1.2 84 0.9 NNW 9 13 5 7 1018.3 - 0.0
15/04:00am 4.4 1.4 0.7 77 1.4 SW 6 13 3 7 1018.3 - 0.0
15/03:30am 5.4 3.0 -0.4 66 2.2 W 2 6 1 3 1018.2 - 0.0
15/03:00am 4.6 1.2 -1.8 63 2.3 S 6 11 3 6 1018.4 1018.5 0.0
15/02:30am 6.2 3.6 -1.7 57 2.9 SSW 2 6 1 3 1018.4 - 0.0
15/02:00am 6.1 2.8 -1.3 59 2.8 SW 6 9 3 5 1018.5 - 0.0
15/01:30am 6.0 2.1 -1.2 60 2.7 SSW 9 15 5 8 1018.5 - 0.0
15/01:00am 6.5 2.7 -0.9 59 2.8 SSW 9 17 5 9 1018.6 - 0.0
15/12:30am 7.4 2.9 -0.5 57 3.1 SSW 13 26 7 14 1018.4 - 0.0
15/12:00am 7.0 3.6 -0.9 57 3.0 S 7 17 4 9 1018.4 1018.5 0.0
 
Date/Time
EST
Temp
°C
App
Temp
°C
Dew
Point
Rel
Hum
%
Delta-T
°C
Wind Press
QNH
hPa
Press
MSL
hPa
Rain
since 9 am
mm
Dir
 
Spd
km/h
Gust
km/h
Spd
kts
Gust
kts
14/11:30pm 7.8 4.4 -0.7 55 3.3 SSW 7 11 4 6 1018.5 - 0.0
14/11:00pm 7.4 3.8 0.6 62 2.7 SSW 9 15 5 8 1018.3 - 0.0
14/10:30pm 7.0 4.4 4.0 81 1.3 NW 7 13 4 7 1018.4 - 0.0
14/10:00pm 6.5 4.0 4.8 89 0.7 NW 7 9 4 5 1018.4 - 0.0
14/09:30pm 7.0 4.2 5.3 89 0.8 NNW 9 11 5 6 1018.2 - 0.0
14/09:00pm 7.4 4.7 5.5 88 0.8 NNW 9 11 5 6 1018.0 1018.1 0.0
14/08:30pm 8.3 6.0 5.6 83 1.2 NW 7 9 4 5 1017.8 - 0.0
14/08:00pm 9.1 8.2 6.2 82 1.3 CALM 0 2 0 1 1017.7 - 0.0
14/07:30pm 10.6 8.4 6.4 75 2.0 N 7 9 4 5 1017.3 - 0.0
14/07:00pm 10.3 7.9 5.1 70 2.4 ENE 7 9 4 5 1017.0 - 0.0
14/06:30pm 10.3 7.9 5.1 70 2.4 E 7 11 4 6 1016.7 - 0.0
14/06:00pm 11.2 9.0 5.5 68 2.6 NE 6 7 3 4 1016.3 1016.4 0.0
14/05:30pm 12.7 10.0 5.6 62 3.3 ENE 9 13 5 7 1015.9 - 0.0
14/05:00pm 13.8 10.4 4.1 52 4.4 NE 11 15 6 8 1015.6 - 0.0
14/04:30pm 14.6 11.5 3.4 47 5.1 ENE 9 15 5 8 1015.3 - 0.0
14/04:00pm 14.4 9.9 4.1 50 4.7 ENE 17 22 9 12 1015.1 - 0.0
14/03:30pm 14.5 9.6 3.9 49 4.9 E 19 28 10 15 1014.8 - 0.0
14/03:00pm 15.3 10.3 3.5 45 5.4 E 19 26 10 14 1014.9 1014.9 0.0
14/02:30pm 15.5 10.2 5.1 50 4.9 ENE 22 33 12 18 1014.5 - 0.0
14/02:00pm 16.0 9.9 4.7 47 5.3 ENE 26 43 14 23 1014.2 - 0.0
14/01:48pm 15.0 8.3 5.5 53 4.5 E 30 43 16 23 1014.1 - 0.0
14/01:46pm 15.6 9.2 5.2 50 4.9 NE 28 41 15 22 1014.0 - 0.0
14/01:30pm 17.9 15.0 2.6 36 7.0 N 7 15 4 8 1014.1 - 0.0
14/01:00pm 16.6 12.8 4.0 43 5.9 N 13 20 7 11 1014.2 - 0.0
14/12:30pm 15.9 12.7 4.9 48 5.2 NW 11 20 6 11 1014.4 - 0.0
14/12:00pm 17.3 14.0 4.6 43 6.0 SSW 11 22 6 12 1014.6 1014.7 0.0
14/11:30am 17.5 14.8 5.8 46 5.7 S 9 17 5 9 1014.8 - 0.0
14/11:00am 16.5 13.6 6.6 52 4.9 SSE 11 20 6 11 1015.0 - 0.0
14/10:30am 15.0 13.0 7.3 60 3.8 ESE 7 13 4 7 1015.0 - 0.0
14/10:00am 16.0 13.9 8.2 60 4.0 W 9 19 5 10 1015.0 - 0.0
14/09:30am 15.1 12.1 7.9 62 3.6 WNW 13 20 7 11 1015.2 - 0.0
14/09:00am 14.1 10.8 8.1 67 3.0 NW 15 22 8 12 1015.4 1015.5 0.0
14/08:30am 13.2 10.2 7.9 70 2.6 NW 13 20 7 11 1015.5 - 0.0
14/08:00am 12.5 8.7 7.6 72 2.4 WNW 17 30 9 16 1015.3 - 0.0
14/07:30am 11.9 8.0 7.0 72 2.4 NW 17 30 9 16 1015.2 - 0.0
14/07:00am 11.0 7.4 6.7 75 2.0 WNW 15 20 8 11 1015.1 - 0.0
14/06:30am 9.0 5.6 5.7 80 1.5 NW 13 20 7 11 1014.9 - 0.0
14/06:00am 7.6 4.9 5.7 88 0.9 NW 9 15 5 8 1014.9 1015.0 0.0
14/05:30am 7.1 4.8 5.6 90 0.7 NW 7 9 4 5 1014.8 - 0.0
14/05:00am 6.6 4.7 5.1 90 0.7 NNW 4 9 2 5 1015.0 - 0.0
14/04:30am 7.3 5.9 5.3 87 0.9 NW 2 9 1 5 1015.3 - 0.0
14/04:00am 8.0 7.0 5.8 86 1.0 CALM 0 0 0 0 1015.8 - 0.0
14/03:30am 8.6 6.3 5.5 81 1.4 NNW 7 9 4 5 1016.2 - 0.0
14/03:00am 8.6 6.3 5.5 81 1.4 NW 7 11 4 6 1016.5 1016.6 0.0
14/02:30am 8.7 6.4 5.8 82 1.3 NW 7 13 4 7 1016.9 - 0.0
14/02:00am 9.1 6.4 5.8 80 1.5 WNW 9 13 5 7 1016.9 - 0.0
14/01:30am 9.6 7.0 6.0 78 1.7 WNW 9 15 5 8 1017.5 - 0.0
14/01:00am 9.9 7.6 5.5 74 2.0 WNW 7 13 4 7 1017.6 - 0.0
14/12:30am 10.8 7.0 5.6 70 2.4 W 15 24 8 13 1017.5 - 0.0
14/12:00am 10.9 6.7 5.9 71 2.3 WSW 17 30 9 16 1017.1 1017.2 0.0
 
Date/Time
EST
Temp
°C
App
Temp
°C
Dew
Point
Rel
Hum
%
Delta-T
°C
Wind Press
QNH
hPa
Press
MSL
hPa
Rain
since 9 am
mm
Dir
 
Spd
km/h
Gust
km/h
Spd
kts
Gust
kts
13/11:30pm 10.4 6.4 6.7 78 1.7 NW 17 24 9 13 1017.4 - 0.0
13/11:00pm 10.5 7.2 6.6 77 1.8 WNW 13 22 7 12 1017.6 - 0.0
13/10:30pm 11.0 6.7 6.9 76 1.9 WNW 19 24 10 13 1017.7 - 0.0
13/10:00pm 11.2 7.6 6.9 75 2.0 WNW 15 22 8 12 1017.8 - 0.0
13/09:30pm 11.3 8.1 7.0 75 2.1 W 13 26 7 14 1017.9 - 0.0
13/09:00pm 11.4 8.3 7.1 75 2.1 W 13 20 7 11 1018.0 1018.1 0.0
13/08:30pm 11.6 8.8 7.1 74 2.2 WSW 11 20 6 11 1018.0 - 0.0
13/08:00pm 11.7 8.6 7.2 74 2.2 W 13 20 7 11 1018.0 - 0.0
13/07:30pm 12.1 9.0 7.4 73 2.3 W 13 24 7 13 1018.1 - 0.0
13/07:00pm 12.4 9.0 7.5 72 2.4 W 15 28 8 15 1018.0 - 0.0
13/06:30pm 12.6 9.6 7.5 71 2.5 WNW 13 20 7 11 1018.0 - 0.0
13/06:00pm 13.1 9.7 7.5 69 2.7 W 15 32 8 17 1017.9 1018.0 0.0
13/05:30pm 13.9 10.8 7.2 64 3.3 WSW 13 26 7 14 1017.9 - 0.0
13/05:00pm 14.6 11.1 7.2 61 3.6 W 15 30 8 16 1017.8 - 0.0
13/04:30pm 15.7 11.7 6.7 55 4.4 W 17 32 9 17 1017.7 - 0.0
13/04:00pm 16.4 13.3 7.3 55 4.5 W 13 28 7 15 1017.6 - 0.0
13/03:30pm 17.0 13.5 7.4 53 4.8 W 15 26 8 14 1017.5 - 0.0
13/03:00pm 16.8 13.2 6.9 52 4.9 WNW 15 24 8 13 1017.6 1017.7 0.0
13/02:30pm 17.1 13.9 6.9 51 5.1 W 13 26 7 14 1017.9 - 0.0
13/02:00pm 17.4 14.1 6.3 48 5.5 W 13 26 7 14 1018.0 - 0.0
13/01:30pm 17.4 14.2 6.9 50 5.2 WNW 13 26 7 14 1018.3 - 0.0
13/01:00pm 17.3 14.0 6.5 49 5.3 WNW 13 22 7 12 1018.7 - 0.0
13/12:30pm 17.1 13.8 6.3 49 5.3 W 13 30 7 16 1019.2 - 0.0
13/12:00pm 17.0 14.5 6.5 50 5.2 NW 9 20 5 11 1019.6 1019.7 0.0
13/11:30am 16.9 14.0 6.4 50 5.2 NW 11 19 6 10 1020.2 - 0.0
13/11:00am 16.5 14.6 6.9 53 4.8 WNW 6 13 3 7 1020.7 - 0.0
13/10:30am 15.8 13.6 6.0 52 4.7 WNW 7 13 4 7 1021.0 - 0.0
13/10:00am 14.8 12.5 5.6 54 4.4 NW 7 11 4 6 1021.5 - 0.0
13/09:30am 13.7 12.6 6.8 63 3.3 W 2 7 1 4 1021.7 - 0.0
13/09:00am 12.8 10.3 6.6 66 3.0 NW 9 13 5 7 1021.9 1022.0 0.0
13/08:30am 11.7 9.3 6.8 72 2.3 NW 9 13 5 7 1022.1 - 0.0
13/08:00am 10.0 7.4 6.3 78 1.7 NNW 9 13 5 7 1022.1 - 0.0
13/07:30am 8.8 6.6 6.4 85 1.1 N 7 9 4 5 1021.8 - 0.0
13/07:00am 8.0 6.0 6.1 88 0.9 NNW 6 9 3 5 1021.7 - 0.0
13/06:30am 8.4 6.1 5.7 83 1.2 NW 7 11 4 6 1021.3 - 0.0
13/06:00am 8.8 6.3 6.4 85 1.1 NW 9 11 5 6 1021.1 1021.2 0.0
13/05:30am 9.0 6.3 5.7 80 1.5 NW 9 13 5 7 1021.0 - 0.0
13/05:00am 9.6 7.6 6.1 79 1.6 WNW 6 9 3 5 1020.9 - 0.0
13/04:30am 10.0 7.7 5.8 75 1.9 WNW 7 13 4 7 1020.7 - 0.0
13/04:00am 10.1 7.8 5.5 73 2.1 WNW 7 13 4 7 1020.4 - 0.0
13/03:30am 10.4 7.7 5.6 72 2.2 WNW 9 15 5 8 1020.3 - 0.0
13/03:00am 10.1 7.5 6.1 76 1.8 NW 9 15 5 8 1020.5 1020.6 0.0
13/02:30am 10.3 8.0 5.9 74 2.0 WNW 7 13 4 7 1020.7 - 0.0
13/02:00am 9.9 7.6 5.9 76 1.8 WSW 7 15 4 8 1020.7 - 0.0
13/01:30am 10.2 8.0 6.2 76 1.9 WNW 7 15 4 8 1021.0 - 0.0
13/01:00am 9.9 7.3 6.2 78 1.7 N 9 15 5 8 1021.2 - 0.0
13/12:30am 10.3 7.7 5.9 74 2.0 NNW 9 15 5 8 1021.3 - 0.0
13/12:00am 11.0 8.4 6.0 71 2.3 NW 9 13 5 7 1021.1 1021.2 0.0
 
Date/Time
EST
Temp
°C
App
Temp
°C
Dew
Point
Rel
Hum
%
Delta-T
°C
Wind Press
QNH
hPa
Press
MSL
hPa
Rain
since 9 am
mm
Dir
 
Spd
km/h
Gust
km/h
Spd
kts
Gust
kts
12/11:30pm 10.5 8.3 6.1 74 2.0 WNW 7 11 4 6 1021.4 - 0.0
12/11:00pm 10.6 8.1 6.4 75 2.0 WNW 9 17 5 9 1021.6 - 0.0
12/10:30pm 10.5 8.4 6.6 77 1.8 W 7 13 4 7 1021.6 - 0.0
12/10:00pm 10.7 8.2 6.6 76 1.9 WNW 9 17 5 9 1022.0 - 0.0
12/09:30pm 10.6 8.5 6.6 76 1.9 W 7 13 4 7 1022.0 - 0.0
12/09:00pm 10.9 8.5 7.0 77 1.8 WSW 9 17 5 9 1021.7 1021.8 0.0
12/08:30pm 11.4 8.3 7.1 75 2.1 NNW 13 20 7 11 1021.5 - 0.0
12/08:00pm 11.6 8.9 7.3 75 2.1 N 11 17 6 9 1021.3 - 0.0
12/07:30pm 11.6 9.3 7.5 76 2.0 NNW 9 13 5 7 1021.2 - 0.0

Other Formats:

Comma delimited format used in spreadsheet applications
http://www.bom.gov.au/fwo/IDT60801/IDT60801.95981.axf

JavaScript Object Notation format (JSON) in row-major order
http://www.bom.gov.au/fwo/IDT60801/IDT60801.95981.json